sensor_id;sensor_type;location;lat;lon;timestamp;temperature;humidity
18658;DHT22;9458;50.942;5.074;2024-01-15T00:02:24;2.10;99.90
18658;DHT22;9458;50.942;5.074;2024-01-15T00:04:52;2.10;99.90
18658;DHT22;9458;50.942;5.074;2024-01-15T00:07:19;2.10;99.90
18658;DHT22;9458;50.942;5.074;2024-01-15T00:09:46;2.10;99.90
18658;DHT22;9458;50.942;5.074;2024-01-15T00:12:13;2.10;99.90
18658;DHT22;9458;50.942;5.074;2024-01-15T00:14:40;2.10;99.90
18658;DHT22;9458;50.942;5.074;2024-01-15T00:17:07;2.10;99.90
18658;DHT22;9458;50.942;5.074;2024-01-15T00:19:34;2.10;99.90
18658;DHT22;9458;50.942;5.074;2024-01-15T00:22:03;2.20;99.90
18658;DHT22;9458;50.942;5.074;2024-01-15T00:24:30;2.10;99.90
18658;DHT22;9458;50.942;5.074;2024-01-15T00:26:56;2.20;99.90
18658;DHT22;9458;50.942;5.074;2024-01-15T00:29:23;2.20;99.90
18658;DHT22;9458;50.942;5.074;2024-01-15T00:31:51;2.20;99.90
18658;DHT22;9458;50.942;5.074;2024-01-15T00:34:17;2.10;99.90
18658;DHT22;9458;50.942;5.074;2024-01-15T00:36:45;2.00;99.90
18658;DHT22;9458;50.942;5.074;2024-01-15T00:39:13;2.00;99.90
18658;DHT22;9458;50.942;5.074;2024-01-15T00:41:42;2.00;99.90
18658;DHT22;9458;50.942;5.074;2024-01-15T00:44:09;2.10;99.90
18658;DHT22;9458;50.942;5.074;2024-01-15T00:46:41;2.10;99.90
18658;DHT22;9458;50.942;5.074;2024-01-15T00:49:08;2.10;99.90
18658;DHT22;9458;50.942;5.074;2024-01-15T00:51:35;2.00;99.90
18658;DHT22;9458;50.942;5.074;2024-01-15T00:54:02;2.00;99.90
18658;DHT22;9458;50.942;5.074;2024-01-15T00:56:30;1.90;99.90
18658;DHT22;9458;50.942;5.074;2024-01-15T00:58:57;1.90;99.90
18658;DHT22;9458;50.942;5.074;2024-01-15T01:01:24;1.90;99.90
18658;DHT22;9458;50.942;5.074;2024-01-15T01:03:51;1.90;99.90
18658;DHT22;9458;50.942;5.074;2024-01-15T01:06:17;1.90;99.90
18658;DHT22;9458;50.942;5.074;2024-01-15T01:08:44;1.90;99.90
18658;DHT22;9458;50.942;5.074;2024-01-15T01:11:12;1.80;99.90
18658;DHT22;9458;50.942;5.074;2024-01-15T01:13:41;1.90;99.90
18658;DHT22;9458;50.942;5.074;2024-01-15T01:16:07;2.00;99.90
18658;DHT22;9458;50.942;5.074;2024-01-15T01:18:34;1.90;99.90
18658;DHT22;9458;50.942;5.074;2024-01-15T01:21:01;1.90;99.90
18658;DHT22;9458;50.942;5.074;2024-01-15T01:23:28;1.90;99.90
18658;DHT22;9458;50.942;5.074;2024-01-15T01:25:55;2.00;99.90
18658;DHT22;9458;50.942;5.074;2024-01-15T01:28:22;1.90;99.90
18658;DHT22;9458;50.942;5.074;2024-01-15T01:30:51;1.90;99.90
18658;DHT22;9458;50.942;5.074;2024-01-15T01:33:17;1.90;99.90
18658;DHT22;9458;50.942;5.074;2024-01-15T01:35:44;1.90;99.90
18658;DHT22;9458;50.942;5.074;2024-01-15T01:38:12;2.00;99.90
18658;DHT22;9458;50.942;5.074;2024-01-15T01:40:39;2.00;99.90
18658;DHT22;9458;50.942;5.074;2024-01-15T01:43:06;2.00;99.90
18658;DHT22;9458;50.942;5.074;2024-01-15T01:45:32;1.90;99.90
18658;DHT22;9458;50.942;5.074;2024-01-15T01:48:01;1.90;99.90
18658;DHT22;9458;50.942;5.074;2024-01-15T01:50:28;1.90;99.90
18658;DHT22;9458;50.942;5.074;2024-01-15T01:52:57;1.90;99.90
18658;DHT22;9458;50.942;5.074;2024-01-15T01:55:24;2.00;99.90
18658;DHT22;9458;50.942;5.074;2024-01-15T01:57:53;2.00;99.90
18658;DHT22;9458;50.942;5.074;2024-01-15T02:00:20;2.10;99.90
18658;DHT22;9458;50.942;5.074;2024-01-15T02:02:47;2.00;99.90
18658;DHT22;9458;50.942;5.074;2024-01-15T02:05:15;2.00;99.90
18658;DHT22;9458;50.942;5.074;2024-01-15T02:07:44;2.00;99.90
18658;DHT22;9458;50.942;5.074;2024-01-15T02:10:11;2.00;99.90
18658;DHT22;9458;50.942;5.074;2024-01-15T02:12:38;2.00;99.90
18658;DHT22;9458;50.942;5.074;2024-01-15T02:15:05;2.00;99.90
18658;DHT22;9458;50.942;5.074;2024-01-15T02:17:32;2.00;99.90
18658;DHT22;9458;50.942;5.074;2024-01-15T02:19:59;2.00;99.90
18658;DHT22;9458;50.942;5.074;2024-01-15T02:22:28;2.00;99.90
18658;DHT22;9458;50.942;5.074;2024-01-15T02:24:56;2.00;99.90
18658;DHT22;9458;50.942;5.074;2024-01-15T02:27:23;2.00;99.90
18658;DHT22;9458;50.942;5.074;2024-01-15T02:29:50;1.90;99.90
18658;DHT22;9458;50.942;5.074;2024-01-15T02:32:17;2.00;99.90
18658;DHT22;9458;50.942;5.074;2024-01-15T02:34:44;2.00;99.90
18658;DHT22;9458;50.942;5.074;2024-01-15T02:37:11;2.00;99.90
18658;DHT22;9458;50.942;5.074;2024-01-15T02:39:38;2.00;99.90
18658;DHT22;9458;50.942;5.074;2024-01-15T02:42:06;2.00;99.90
18658;DHT22;9458;50.942;5.074;2024-01-15T02:44:33;2.00;99.90
18658;DHT22;9458;50.942;5.074;2024-01-15T02:47:00;2.00;99.90
18658;DHT22;9458;50.942;5.074;2024-01-15T02:49:27;2.00;99.90
18658;DHT22;9458;50.942;5.074;2024-01-15T02:51:54;2.00;99.90
18658;DHT22;9458;50.942;5.074;2024-01-15T02:54:21;2.00;99.90
18658;DHT22;9458;50.942;5.074;2024-01-15T02:56:48;2.00;99.90
18658;DHT22;9458;50.942;5.074;2024-01-15T02:59:16;2.00;99.90
18658;DHT22;9458;50.942;5.074;2024-01-15T03:01:43;2.00;99.90
18658;DHT22;9458;50.942;5.074;2024-01-15T03:04:10;2.00;99.90
18658;DHT22;9458;50.942;5.074;2024-01-15T03:06:37;2.00;99.90
18658;DHT22;9458;50.942;5.074;2024-01-15T03:09:03;2.10;99.90
18658;DHT22;9458;50.942;5.074;2024-01-15T03:11:36;2.10;99.90
18658;DHT22;9458;50.942;5.074;2024-01-15T03:14:03;2.10;99.90
18658;DHT22;9458;50.942;5.074;2024-01-15T03:16:31;2.10;99.90
18658;DHT22;9458;50.942;5.074;2024-01-15T03:18:58;2.10;99.90
18658;DHT22;9458;50.942;5.074;2024-01-15T03:21:25;2.10;99.90
18658;DHT22;9458;50.942;5.074;2024-01-15T03:23:52;2.10;99.90
18658;DHT22;9458;50.942;5.074;2024-01-15T03:26:19;2.10;99.90
18658;DHT22;9458;50.942;5.074;2024-01-15T03:28:46;2.00;99.90
18658;DHT22;9458;50.942;5.074;2024-01-15T03:31:12;2.10;99.90
18658;DHT22;9458;50.942;5.074;2024-01-15T03:33:41;2.10;99.90
18658;DHT22;9458;50.942;5.074;2024-01-15T03:36:08;2.00;99.90
18658;DHT22;9458;50.942;5.074;2024-01-15T03:38:38;2.00;99.90
18658;DHT22;9458;50.942;5.074;2024-01-15T03:41:05;2.00;99.90
18658;DHT22;9458;50.942;5.074;2024-01-15T03:43:32;2.10;99.90
18658;DHT22;9458;50.942;5.074;2024-01-15T03:45:59;2.10;99.90
18658;DHT22;9458;50.942;5.074;2024-01-15T03:48:27;2.10;99.90
18658;DHT22;9458;50.942;5.074;2024-01-15T03:50:56;2.10;99.90
18658;DHT22;9458;50.942;5.074;2024-01-15T03:53:23;2.20;99.90
18658;DHT22;9458;50.942;5.074;2024-01-15T03:55:49;2.10;99.90
18658;DHT22;9458;50.942;5.074;2024-01-15T03:58:16;2.10;99.90
18658;DHT22;9458;50.942;5.074;2024-01-15T04:00:43;2.10;99.90
18658;DHT22;9458;50.942;5.074;2024-01-15T04:03:10;2.10;99.90
18658;DHT22;9458;50.942;5.074;2024-01-15T04:05:38;2.00;99.90
18658;DHT22;9458;50.942;5.074;2024-01-15T04:08:07;1.90;99.90
18658;DHT22;9458;50.942;5.074;2024-01-15T04:10:34;1.80;99.90
18658;DHT22;9458;50.942;5.074;2024-01-15T04:13:01;1.90;99.90
18658;DHT22;9458;50.942;5.074;2024-01-15T04:15:29;2.00;99.90
18658;DHT22;9458;50.942;5.074;2024-01-15T04:17:55;2.00;99.90
18658;DHT22;9458;50.942;5.074;2024-01-15T04:20:22;2.00;99.90
18658;DHT22;9458;50.942;5.074;2024-01-15T04:22:49;2.00;99.90
18658;DHT22;9458;50.942;5.074;2024-01-15T04:25:18;2.00;99.90
18658;DHT22;9458;50.942;5.074;2024-01-15T04:27:45;2.10;99.90
18658;DHT22;9458;50.942;5.074;2024-01-15T04:30:12;2.00;99.90
18658;DHT22;9458;50.942;5.074;2024-01-15T04:32:39;2.00;99.90
18658;DHT22;9458;50.942;5.074;2024-01-15T04:35:06;2.00;99.90
18658;DHT22;9458;50.942;5.074;2024-01-15T04:37:33;2.00;99.90
18658;DHT22;9458;50.942;5.074;2024-01-15T04:40:00;2.00;99.90
18658;DHT22;9458;50.942;5.074;2024-01-15T04:42:28;2.00;99.90
18658;DHT22;9458;50.942;5.074;2024-01-15T04:44:55;2.00;99.90
18658;DHT22;9458;50.942;5.074;2024-01-15T04:47:22;1.90;99.90
18658;DHT22;9458;50.942;5.074;2024-01-15T04:49:49;1.80;99.90
18658;DHT22;9458;50.942;5.074;2024-01-15T04:52:16;1.90;99.90
18658;DHT22;9458;50.942;5.074;2024-01-15T04:54:43;1.80;99.90
18658;DHT22;9458;50.942;5.074;2024-01-15T04:57:10;1.70;99.90
18658;DHT22;9458;50.942;5.074;2024-01-15T04:59:39;1.80;99.90
18658;DHT22;9458;50.942;5.074;2024-01-15T05:02:06;1.80;99.90
18658;DHT22;9458;50.942;5.074;2024-01-15T05:04:33;1.90;99.90
18658;DHT22;9458;50.942;5.074;2024-01-15T05:07:00;1.80;99.90
18658;DHT22;9458;50.942;5.074;2024-01-15T05:09:26;1.80;99.90
18658;DHT22;9458;50.942;5.074;2024-01-15T05:11:54;1.80;99.90
18658;DHT22;9458;50.942;5.074;2024-01-15T05:14:21;1.90;99.90
18658;DHT22;9458;50.942;5.074;2024-01-15T05:16:49;1.80;99.90
18658;DHT22;9458;50.942;5.074;2024-01-15T05:19:16;1.80;99.90
18658;DHT22;9458;50.942;5.074;2024-01-15T05:21:43;1.80;99.90
18658;DHT22;9458;50.942;5.074;2024-01-15T05:24:10;1.80;99.90
18658;DHT22;9458;50.942;5.074;2024-01-15T05:26:37;1.80;99.90
18658;DHT22;9458;50.942;5.074;2024-01-15T05:29:04;1.70;99.90
18658;DHT22;9458;50.942;5.074;2024-01-15T05:31:35;1.70;99.90
18658;DHT22;9458;50.942;5.074;2024-01-15T05:34:03;1.70;99.90
18658;DHT22;9458;50.942;5.074;2024-01-15T05:36:30;1.60;99.90
18658;DHT22;9458;50.942;5.074;2024-01-15T05:38:57;1.60;99.90
18658;DHT22;9458;50.942;5.074;2024-01-15T05:41:24;1.50;99.90
18658;DHT22;9458;50.942;5.074;2024-01-15T05:43:52;1.50;99.90
18658;DHT22;9458;50.942;5.074;2024-01-15T05:46:19;1.60;99.90
18658;DHT22;9458;50.942;5.074;2024-01-15T05:48:46;1.40;99.90
18658;DHT22;9458;50.942;5.074;2024-01-15T05:51:14;1.40;99.90
18658;DHT22;9458;50.942;5.074;2024-01-15T05:53:41;1.40;99.90
18658;DHT22;9458;50.942;5.074;2024-01-15T05:56:09;1.40;99.90
18658;DHT22;9458;50.942;5.074;2024-01-15T05:58:37;1.40;99.90
18658;DHT22;9458;50.942;5.074;2024-01-15T06:01:03;1.40;99.90
18658;DHT22;9458;50.942;5.074;2024-01-15T06:03:30;1.50;99.90
18658;DHT22;9458;50.942;5.074;2024-01-15T06:05:57;1.40;99.90
18658;DHT22;9458;50.942;5.074;2024-01-15T06:08:26;1.40;99.90
18658;DHT22;9458;50.942;5.074;2024-01-15T06:10:53;1.40;99.90
18658;DHT22;9458;50.942;5.074;2024-01-15T06:13:20;1.40;99.90
18658;DHT22;9458;50.942;5.074;2024-01-15T06:15:47;1.40;99.90
18658;DHT22;9458;50.942;5.074;2024-01-15T06:18:14;1.30;99.90
18658;DHT22;9458;50.942;5.074;2024-01-15T06:20:41;1.40;99.90
18658;DHT22;9458;50.942;5.074;2024-01-15T06:23:08;1.30;99.90
18658;DHT22;9458;50.942;5.074;2024-01-15T06:25:36;1.30;99.90
18658;DHT22;9458;50.942;5.074;2024-01-15T06:28:03;1.30;99.90
18658;DHT22;9458;50.942;5.074;2024-01-15T06:30:30;1.40;99.90
18658;DHT22;9458;50.942;5.074;2024-01-15T06:32:57;1.40;99.90
18658;DHT22;9458;50.942;5.074;2024-01-15T06:35:24;1.40;99.90
18658;DHT22;9458;50.942;5.074;2024-01-15T06:37:51;1.40;99.90
18658;DHT22;9458;50.942;5.074;2024-01-15T06:40:18;1.40;99.90
18658;DHT22;9458;50.942;5.074;2024-01-15T06:42:46;1.30;99.90
18658;DHT22;9458;50.942;5.074;2024-01-15T06:45:14;1.40;99.90
18658;DHT22;9458;50.942;5.074;2024-01-15T06:47:40;1.40;99.90
18658;DHT22;9458;50.942;5.074;2024-01-15T06:50:07;1.40;99.90
18658;DHT22;9458;50.942;5.074;2024-01-15T06:52:35;1.50;99.90
18658;DHT22;9458;50.942;5.074;2024-01-15T06:55:02;1.50;99.90
18658;DHT22;9458;50.942;5.074;2024-01-15T06:57:29;1.50;99.90
18658;DHT22;9458;50.942;5.074;2024-01-15T06:59:57;1.60;99.90
18658;DHT22;9458;50.942;5.074;2024-01-15T07:02:24;1.60;99.90
18658;DHT22;9458;50.942;5.074;2024-01-15T07:04:52;1.60;99.90
18658;DHT22;9458;50.942;5.074;2024-01-15T07:07:19;1.60;99.90
18658;DHT22;9458;50.942;5.074;2024-01-15T07:09:46;1.60;99.90
18658;DHT22;9458;50.942;5.074;2024-01-15T07:12:13;1.60;99.90
18658;DHT22;9458;50.942;5.074;2024-01-15T07:14:40;1.70;99.90
18658;DHT22;9458;50.942;5.074;2024-01-15T07:17:09;1.60;99.90
18658;DHT22;9458;50.942;5.074;2024-01-15T07:19:35;1.60;99.90
18658;DHT22;9458;50.942;5.074;2024-01-15T07:22:03;1.70;99.90
18658;DHT22;9458;50.942;5.074;2024-01-15T07:24:30;1.70;99.90
18658;DHT22;9458;50.942;5.074;2024-01-15T07:26:57;1.70;99.90
18658;DHT22;9458;50.942;5.074;2024-01-15T07:29:24;1.70;99.90
18658;DHT22;9458;50.942;5.074;2024-01-15T07:31:51;1.70;99.90
18658;DHT22;9458;50.942;5.074;2024-01-15T07:34:20;1.70;99.90
18658;DHT22;9458;50.942;5.074;2024-01-15T07:36:47;1.70;99.90
18658;DHT22;9458;50.942;5.074;2024-01-15T07:39:14;1.70;99.90
18658;DHT22;9458;50.942;5.074;2024-01-15T07:41:41;1.70;99.90
18658;DHT22;9458;50.942;5.074;2024-01-15T07:44:07;1.80;99.90
18658;DHT22;9458;50.942;5.074;2024-01-15T07:46:34;1.80;99.90
18658;DHT22;9458;50.942;5.074;2024-01-15T07:49:01;1.90;99.90
18658;DHT22;9458;50.942;5.074;2024-01-15T07:51:30;1.90;99.90
18658;DHT22;9458;50.942;5.074;2024-01-15T07:53:57;1.90;99.90
18658;DHT22;9458;50.942;5.074;2024-01-15T07:56:24;1.90;99.90
18658;DHT22;9458;50.942;5.074;2024-01-15T07:58:53;1.90;99.90
18658;DHT22;9458;50.942;5.074;2024-01-15T08:01:19;2.00;99.90
18658;DHT22;9458;50.942;5.074;2024-01-15T08:03:46;1.90;99.90
18658;DHT22;9458;50.942;5.074;2024-01-15T08:06:13;2.00;99.90
18658;DHT22;9458;50.942;5.074;2024-01-15T08:08:42;2.00;99.90
18658;DHT22;9458;50.942;5.074;2024-01-15T08:11:09;2.10;99.90
18658;DHT22;9458;50.942;5.074;2024-01-15T08:13:35;2.00;99.90
18658;DHT22;9458;50.942;5.074;2024-01-15T08:16:02;2.10;99.90
18658;DHT22;9458;50.942;5.074;2024-01-15T08:18:30;2.10;99.90
18658;DHT22;9458;50.942;5.074;2024-01-15T08:20:57;2.10;99.90
18658;DHT22;9458;50.942;5.074;2024-01-15T08:23:23;2.10;99.90
18658;DHT22;9458;50.942;5.074;2024-01-15T08:25:55;2.10;99.90
18658;DHT22;9458;50.942;5.074;2024-01-15T08:28:22;2.10;99.90
18658;DHT22;9458;50.942;5.074;2024-01-15T08:30:49;2.10;99.90
18658;DHT22;9458;50.942;5.074;2024-01-15T08:33:15;2.10;99.90
18658;DHT22;9458;50.942;5.074;2024-01-15T08:35:42;2.10;99.90
18658;DHT22;9458;50.942;5.074;2024-01-15T08:38:10;2.10;99.90
18658;DHT22;9458;50.942;5.074;2024-01-15T08:40:37;2.10;99.90
18658;DHT22;9458;50.942;5.074;2024-01-15T08:43:06;2.10;99.90
18658;DHT22;9458;50.942;5.074;2024-01-15T08:45:33;2.20;99.90
18658;DHT22;9458;50.942;5.074;2024-01-15T08:48:00;2.20;99.90
18658;DHT22;9458;50.942;5.074;2024-01-15T08:50:27;2.10;99.90
18658;DHT22;9458;50.942;5.074;2024-01-15T08:52:55;2.10;99.90
18658;DHT22;9458;50.942;5.074;2024-01-15T08:55:22;2.10;99.90
18658;DHT22;9458;50.942;5.074;2024-01-15T08:57:49;2.10;99.90
18658;DHT22;9458;50.942;5.074;2024-01-15T09:00:18;2.10;99.90
18658;DHT22;9458;50.942;5.074;2024-01-15T09:02:45;2.10;99.90
18658;DHT22;9458;50.942;5.074;2024-01-15T09:05:12;2.20;99.90
18658;DHT22;9458;50.942;5.074;2024-01-15T09:07:39;2.20;99.90
18658;DHT22;9458;50.942;5.074;2024-01-15T09:10:06;2.20;99.90
18658;DHT22;9458;50.942;5.074;2024-01-15T09:12:33;2.30;99.90
18658;DHT22;9458;50.942;5.074;2024-01-15T09:15:00;2.30;99.90
18658;DHT22;9458;50.942;5.074;2024-01-15T09:17:31;2.30;99.90
18658;DHT22;9458;50.942;5.074;2024-01-15T09:19:58;2.30;99.90
18658;DHT22;9458;50.942;5.074;2024-01-15T09:22:25;2.40;99.90
18658;DHT22;9458;50.942;5.074;2024-01-15T09:24:53;2.40;99.90
18658;DHT22;9458;50.942;5.074;2024-01-15T09:27:20;2.40;99.90
18658;DHT22;9458;50.942;5.074;2024-01-15T09:29:47;2.40;99.90
18658;DHT22;9458;50.942;5.074;2024-01-15T09:32:14;2.50;99.90
18658;DHT22;9458;50.942;5.074;2024-01-15T09:34:44;2.50;99.90
18658;DHT22;9458;50.942;5.074;2024-01-15T09:37:12;2.50;99.90
18658;DHT22;9458;50.942;5.074;2024-01-15T09:39:40;2.50;99.90
18658;DHT22;9458;50.942;5.074;2024-01-15T09:42:07;2.50;99.90
18658;DHT22;9458;50.942;5.074;2024-01-15T09:44:36;2.60;99.90
18658;DHT22;9458;50.942;5.074;2024-01-15T09:47:03;2.60;99.90
18658;DHT22;9458;50.942;5.074;2024-01-15T09:49:30;2.70;99.90
18658;DHT22;9458;50.942;5.074;2024-01-15T09:51:59;2.80;99.90
18658;DHT22;9458;50.942;5.074;2024-01-15T09:54:27;2.80;99.90
18658;DHT22;9458;50.942;5.074;2024-01-15T09:56:54;2.80;99.90
18658;DHT22;9458;50.942;5.074;2024-01-15T09:59:22;2.80;99.90
18658;DHT22;9458;50.942;5.074;2024-01-15T10:01:49;2.90;99.90
18658;DHT22;9458;50.942;5.074;2024-01-15T10:04:16;2.80;99.90
18658;DHT22;9458;50.942;5.074;2024-01-15T10:06:44;2.90;99.90
18658;DHT22;9458;50.942;5.074;2024-01-15T10:09:14;2.90;99.90
18658;DHT22;9458;50.942;5.074;2024-01-15T10:11:41;2.90;99.90
18658;DHT22;9458;50.942;5.074;2024-01-15T10:14:08;3.00;99.90
18658;DHT22;9458;50.942;5.074;2024-01-15T10:16:38;3.00;99.90
18658;DHT22;9458;50.942;5.074;2024-01-15T10:19:05;3.00;99.90
18658;DHT22;9458;50.942;5.074;2024-01-15T10:21:32;3.10;99.90
18658;DHT22;9458;50.942;5.074;2024-01-15T10:24:00;3.30;99.90
18658;DHT22;9458;50.942;5.074;2024-01-15T10:26:29;3.40;99.90
18658;DHT22;9458;50.942;5.074;2024-01-15T10:28:58;3.40;99.90
18658;DHT22;9458;50.942;5.074;2024-01-15T10:31:25;3.50;99.90
18658;DHT22;9458;50.942;5.074;2024-01-15T10:33:52;3.50;99.90
18658;DHT22;9458;50.942;5.074;2024-01-15T10:36:19;3.50;99.90
18658;DHT22;9458;50.942;5.074;2024-01-15T10:38:47;3.50;99.90
18658;DHT22;9458;50.942;5.074;2024-01-15T10:41:14;3.50;99.90
18658;DHT22;9458;50.942;5.074;2024-01-15T10:43:43;3.60;99.90
18658;DHT22;9458;50.942;5.074;2024-01-15T10:46:10;3.50;99.90
18658;DHT22;9458;50.942;5.074;2024-01-15T10:48:38;3.60;99.90
18658;DHT22;9458;50.942;5.074;2024-01-15T10:51:05;3.60;99.90
18658;DHT22;9458;50.942;5.074;2024-01-15T10:53:37;3.70;99.90
18658;DHT22;9458;50.942;5.074;2024-01-15T10:56:05;3.70;99.90
18658;DHT22;9458;50.942;5.074;2024-01-15T10:58:33;3.80;99.90
18658;DHT22;9458;50.942;5.074;2024-01-15T11:01:02;3.80;99.90
18658;DHT22;9458;50.942;5.074;2024-01-15T11:03:30;3.90;99.90
18658;DHT22;9458;50.942;5.074;2024-01-15T11:05:57;4.10;99.90
18658;DHT22;9458;50.942;5.074;2024-01-15T11:08:26;4.20;99.90
18658;DHT22;9458;50.942;5.074;2024-01-15T11:10:53;4.20;99.90
18658;DHT22;9458;50.942;5.074;2024-01-15T11:13:21;4.20;99.90
18658;DHT22;9458;50.942;5.074;2024-01-15T11:15:54;4.30;99.90
18658;DHT22;9458;50.942;5.074;2024-01-15T11:18:23;4.40;99.90
18658;DHT22;9458;50.942;5.074;2024-01-15T11:23:41;4.60;99.90
18658;DHT22;9458;50.942;5.074;2024-01-15T11:26:20;4.70;99.90
18658;DHT22;9458;50.942;5.074;2024-01-15T11:28:53;4.60;99.90
18658;DHT22;9458;50.942;5.074;2024-01-15T11:31:25;4.30;99.90
18658;DHT22;9458;50.942;5.074;2024-01-15T11:33:53;4.10;99.90
18658;DHT22;9458;50.942;5.074;2024-01-15T11:36:21;4.20;99.90
18658;DHT22;9458;50.942;5.074;2024-01-15T11:38:48;3.80;99.90
18658;DHT22;9458;50.942;5.074;2024-01-15T11:41:15;3.80;99.90
18658;DHT22;9458;50.942;5.074;2024-01-15T11:43:42;3.80;99.90
18658;DHT22;9458;50.942;5.074;2024-01-15T11:46:10;3.60;99.90
18658;DHT22;9458;50.942;5.074;2024-01-15T11:48:42;3.60;99.90
18658;DHT22;9458;50.942;5.074;2024-01-15T11:51:12;3.60;99.90
18658;DHT22;9458;50.942;5.074;2024-01-15T11:53:43;3.80;99.90
18658;DHT22;9458;50.942;5.074;2024-01-15T11:56:11;3.80;99.90
18658;DHT22;9458;50.942;5.074;2024-01-15T11:58:41;3.80;99.90
18658;DHT22;9458;50.942;5.074;2024-01-15T12:01:08;3.70;99.90
18658;DHT22;9458;50.942;5.074;2024-01-15T12:03:35;3.70;99.90
18658;DHT22;9458;50.942;5.074;2024-01-15T12:06:05;3.70;99.90
18658;DHT22;9458;50.942;5.074;2024-01-15T12:08:33;3.80;99.90
18658;DHT22;9458;50.942;5.074;2024-01-15T12:11:00;4.00;99.90
18658;DHT22;9458;50.942;5.074;2024-01-15T12:13:31;4.10;99.90
18658;DHT22;9458;50.942;5.074;2024-01-15T12:15:59;3.80;99.90
18658;DHT22;9458;50.942;5.074;2024-01-15T12:18:28;3.50;99.90
18658;DHT22;9458;50.942;5.074;2024-01-15T12:20:55;3.50;99.90
18658;DHT22;9458;50.942;5.074;2024-01-15T12:23:23;3.30;99.90
18658;DHT22;9458;50.942;5.074;2024-01-15T12:25:52;3.20;99.90
18658;DHT22;9458;50.942;5.074;2024-01-15T12:28:19;3.10;99.90
18658;DHT22;9458;50.942;5.074;2024-01-15T12:30:47;2.80;99.90
18658;DHT22;9458;50.942;5.074;2024-01-15T12:33:17;2.80;99.90
18658;DHT22;9458;50.942;5.074;2024-01-15T12:35:44;2.70;99.90
18658;DHT22;9458;50.942;5.074;2024-01-15T12:38:11;2.60;99.90
18658;DHT22;9458;50.942;5.074;2024-01-15T12:40:38;2.60;99.90
18658;DHT22;9458;50.942;5.074;2024-01-15T12:43:07;2.60;99.90
18658;DHT22;9458;50.942;5.074;2024-01-15T12:45:34;2.60;99.90
18658;DHT22;9458;50.942;5.074;2024-01-15T12:48:03;2.40;99.90
18658;DHT22;9458;50.942;5.074;2024-01-15T12:50:30;2.50;99.90
18658;DHT22;9458;50.942;5.074;2024-01-15T12:53:00;2.70;99.90
18658;DHT22;9458;50.942;5.074;2024-01-15T12:55:30;2.70;99.90
18658;DHT22;9458;50.942;5.074;2024-01-15T12:57:57;2.60;99.90
18658;DHT22;9458;50.942;5.074;2024-01-15T13:00:27;2.50;99.90
18658;DHT22;9458;50.942;5.074;2024-01-15T13:02:54;2.60;99.90
18658;DHT22;9458;50.942;5.074;2024-01-15T13:05:22;2.60;99.90
18658;DHT22;9458;50.942;5.074;2024-01-15T13:07:50;2.40;99.90
18658;DHT22;9458;50.942;5.074;2024-01-15T13:10:17;2.30;99.90
18658;DHT22;9458;50.942;5.074;2024-01-15T13:12:44;2.20;99.90
18658;DHT22;9458;50.942;5.074;2024-01-15T13:15:11;2.20;99.90
18658;DHT22;9458;50.942;5.074;2024-01-15T13:17:40;2.30;99.90
18658;DHT22;9458;50.942;5.074;2024-01-15T13:20:07;2.40;99.90
18658;DHT22;9458;50.942;5.074;2024-01-15T13:22:36;2.30;99.90
18658;DHT22;9458;50.942;5.074;2024-01-15T13:25:05;2.30;99.90
18658;DHT22;9458;50.942;5.074;2024-01-15T13:27:33;2.30;99.90
18658;DHT22;9458;50.942;5.074;2024-01-15T13:30:00;2.40;99.90
18658;DHT22;9458;50.942;5.074;2024-01-15T13:32:28;2.30;99.90
18658;DHT22;9458;50.942;5.074;2024-01-15T13:34:57;2.20;99.90
18658;DHT22;9458;50.942;5.074;2024-01-15T13:37:24;2.20;99.90
18658;DHT22;9458;50.942;5.074;2024-01-15T13:39:51;2.20;99.90
18658;DHT22;9458;50.942;5.074;2024-01-15T13:42:19;2.20;99.90
18658;DHT22;9458;50.942;5.074;2024-01-15T13:44:47;2.20;99.90
18658;DHT22;9458;50.942;5.074;2024-01-15T13:47:14;2.10;99.90
18658;DHT22;9458;50.942;5.074;2024-01-15T13:49:41;2.00;99.90
18658;DHT22;9458;50.942;5.074;2024-01-15T13:52:12;2.10;99.90
18658;DHT22;9458;50.942;5.074;2024-01-15T13:54:39;2.30;99.90
18658;DHT22;9458;50.942;5.074;2024-01-15T13:57:06;2.40;99.90
18658;DHT22;9458;50.942;5.074;2024-01-15T13:59:33;2.40;99.90
18658;DHT22;9458;50.942;5.074;2024-01-15T14:02:01;2.30;99.90
18658;DHT22;9458;50.942;5.074;2024-01-15T14:04:28;2.30;99.90
18658;DHT22;9458;50.942;5.074;2024-01-15T14:06:55;2.40;99.90
18658;DHT22;9458;50.942;5.074;2024-01-15T14:09:23;2.40;99.90
18658;DHT22;9458;50.942;5.074;2024-01-15T14:11:51;2.40;99.90
18658;DHT22;9458;50.942;5.074;2024-01-15T14:14:18;2.40;99.90
18658;DHT22;9458;50.942;5.074;2024-01-15T14:16:45;2.20;99.90
18658;DHT22;9458;50.942;5.074;2024-01-15T14:19:12;2.20;99.90
18658;DHT22;9458;50.942;5.074;2024-01-15T14:21:40;2.20;99.90
18658;DHT22;9458;50.942;5.074;2024-01-15T14:24:07;2.20;99.90
18658;DHT22;9458;50.942;5.074;2024-01-15T14:26:36;2.20;99.90
18658;DHT22;9458;50.942;5.074;2024-01-15T14:29:03;2.10;99.90
18658;DHT22;9458;50.942;5.074;2024-01-15T14:31:31;2.00;99.90
18658;DHT22;9458;50.942;5.074;2024-01-15T14:34:00;2.00;99.90
18658;DHT22;9458;50.942;5.074;2024-01-15T14:36:28;2.10;99.90
18658;DHT22;9458;50.942;5.074;2024-01-15T14:38:55;2.10;99.90
18658;DHT22;9458;50.942;5.074;2024-01-15T14:41:22;2.10;99.90
18658;DHT22;9458;50.942;5.074;2024-01-15T14:43:51;2.00;99.90
18658;DHT22;9458;50.942;5.074;2024-01-15T14:46:18;2.00;99.90
18658;DHT22;9458;50.942;5.074;2024-01-15T14:48:46;1.90;99.90
18658;DHT22;9458;50.942;5.074;2024-01-15T14:51:13;1.90;99.90
18658;DHT22;9458;50.942;5.074;2024-01-15T14:53:40;2.00;99.90
18658;DHT22;9458;50.942;5.074;2024-01-15T14:56:09;2.00;99.90
18658;DHT22;9458;50.942;5.074;2024-01-15T14:58:36;2.10;99.90
18658;DHT22;9458;50.942;5.074;2024-01-15T15:01:05;2.00;99.90
18658;DHT22;9458;50.942;5.074;2024-01-15T15:03:32;1.90;99.90
18658;DHT22;9458;50.942;5.074;2024-01-15T15:05:59;1.90;99.90
18658;DHT22;9458;50.942;5.074;2024-01-15T15:08:27;1.90;99.90
18658;DHT22;9458;50.942;5.074;2024-01-15T15:10:54;1.90;99.90
18658;DHT22;9458;50.942;5.074;2024-01-15T15:13:22;1.80;99.90
18658;DHT22;9458;50.942;5.074;2024-01-15T15:15:49;1.90;99.90
18658;DHT22;9458;50.942;5.074;2024-01-15T15:18:17;1.80;99.90
18658;DHT22;9458;50.942;5.074;2024-01-15T15:20:44;1.80;99.90
18658;DHT22;9458;50.942;5.074;2024-01-15T15:23:12;1.70;99.90
18658;DHT22;9458;50.942;5.074;2024-01-15T15:25:39;1.50;99.90
18658;DHT22;9458;50.942;5.074;2024-01-15T15:28:08;1.50;99.90
18658;DHT22;9458;50.942;5.074;2024-01-15T15:30:36;1.50;99.90
18658;DHT22;9458;50.942;5.074;2024-01-15T15:33:04;1.50;99.90
18658;DHT22;9458;50.942;5.074;2024-01-15T15:35:32;1.60;99.90
18658;DHT22;9458;50.942;5.074;2024-01-15T15:37:59;1.60;99.90
18658;DHT22;9458;50.942;5.074;2024-01-15T15:40:26;1.60;99.90
18658;DHT22;9458;50.942;5.074;2024-01-15T15:42:53;1.60;99.90
18658;DHT22;9458;50.942;5.074;2024-01-15T15:45:20;1.60;99.90
18658;DHT22;9458;50.942;5.074;2024-01-15T15:47:47;1.70;99.90
18658;DHT22;9458;50.942;5.074;2024-01-15T15:50:14;1.80;99.90
18658;DHT22;9458;50.942;5.074;2024-01-15T15:52:43;1.70;99.90
18658;DHT22;9458;50.942;5.074;2024-01-15T15:55:10;1.70;99.90
18658;DHT22;9458;50.942;5.074;2024-01-15T15:57:37;1.80;99.90
18658;DHT22;9458;50.942;5.074;2024-01-15T16:00:05;1.80;99.90
18658;DHT22;9458;50.942;5.074;2024-01-15T16:02:32;1.70;99.90
18658;DHT22;9458;50.942;5.074;2024-01-15T16:04:59;1.60;99.90
18658;DHT22;9458;50.942;5.074;2024-01-15T16:07:26;1.60;99.90